createdAt,value
2018-08-30T00:02:00.073Z,28.17
2018-08-30T00:04:28.544Z,32.20
2018-08-30T00:06:57.090Z,33.03
2018-08-30T00:09:25.601Z,33.40
2018-08-30T00:11:54.057Z,32.53
2018-08-30T00:14:22.548Z,32.67
2018-08-30T00:16:51.048Z,33.73
2018-08-30T00:19:19.584Z,34.63
2018-08-30T00:21:48.085Z,31.97
2018-08-30T00:24:16.642Z,30.93
2018-08-30T00:26:45.181Z,32.13
2018-08-30T00:29:13.651Z,35.30
2018-08-30T00:31:42.186Z,33.60
2018-08-30T00:34:10.674Z,33.53
2018-08-30T00:36:39.260Z,32.03
2018-08-30T00:39:09.437Z,31.03
2018-08-30T00:41:38.195Z,31.47
2018-08-30T00:44:13.095Z,31.50
2018-08-30T00:46:41.626Z,31.97
2018-08-30T00:49:10.138Z,31.33
2018-08-30T00:51:38.637Z,30.10
2018-08-30T00:54:07.105Z,32.07
2018-08-30T00:56:35.604Z,33.00
2018-08-30T00:59:04.295Z,31.20
2018-08-30T01:01:32.773Z,32.87
2018-08-30T01:04:01.284Z,33.07
2018-08-30T01:06:29.839Z,32.87
2018-08-30T01:08:58.345Z,29.23
2018-08-30T01:11:26.844Z,34.00
2018-08-30T01:13:55.375Z,30.17
2018-08-30T01:16:24.129Z,31.43
2018-08-30T01:18:52.671Z,32.00
2018-08-30T01:21:21.258Z,32.20
2018-08-30T01:23:49.778Z,31.90
2018-08-30T01:26:18.409Z,29.00
2018-08-30T01:28:46.889Z,28.87
2018-08-30T01:31:15.478Z,28.97
2018-08-30T01:33:44.194Z,29.33
2018-08-30T01:36:12.694Z,29.20
2018-08-30T01:38:41.213Z,26.90
2018-08-30T01:41:09.765Z,30.00
2018-08-30T01:43:38.270Z,26.63
2018-08-30T01:46:06.873Z,30.07
2018-08-30T01:48:35.401Z,28.70
2018-08-30T01:51:03.914Z,29.27
2018-08-30T01:53:32.480Z,28.33
2018-08-30T01:56:01.055Z,28.30
2018-08-30T01:58:29.581Z,28.93
2018-08-30T02:00:58.089Z,31.20
2018-08-30T02:03:26.700Z,30.43
2018-08-30T02:05:55.331Z,30.20
2018-08-30T02:08:23.849Z,29.53
2018-08-30T02:10:52.340Z,31.13
2018-08-30T02:13:20.899Z,30.60
2018-08-30T02:15:49.580Z,29.93
2018-08-30T02:18:18.062Z,29.77
2018-08-30T02:20:46.562Z,27.87
2018-08-30T02:23:15.112Z,30.53
2018-08-30T02:25:43.723Z,31.30
2018-08-30T02:28:12.252Z,29.70
2018-08-30T02:30:40.819Z,30.40
2018-08-30T02:33:09.466Z,31.80
2018-08-30T02:35:38.107Z,32.50
2018-08-30T02:38:06.658Z,30.03
2018-08-30T02:40:35.166Z,31.63
2018-08-30T02:43:03.802Z,31.27
2018-08-30T02:45:32.435Z,29.57
2018-08-30T02:48:01.010Z,29.33
2018-08-30T02:50:29.549Z,31.97
2018-08-30T02:52:58.073Z,31.50
2018-08-30T02:55:26.597Z,32.70
2018-08-30T02:57:55.530Z,32.67
2018-08-30T03:00:24.482Z,31.83
2018-08-30T03:02:53.038Z,31.40
2018-08-30T03:05:21.565Z,31.77
2018-08-30T03:07:50.055Z,31.43
2018-08-30T03:10:18.589Z,30.43
2018-08-30T03:12:47.162Z,30.80
2018-08-30T03:15:16.290Z,29.63
2018-08-30T03:17:44.773Z,30.50
2018-08-30T03:20:14.365Z,30.53
2018-08-30T03:22:43.187Z,31.53
2018-08-30T03:25:11.810Z,29.27
2018-08-30T03:27:40.265Z,29.77
2018-08-30T03:30:09.215Z,30.20
2018-08-30T03:32:37.699Z,29.43
2018-08-30T03:35:06.209Z,28.37
2018-08-30T03:37:34.764Z,30.67
2018-08-30T03:40:03.334Z,29.27
2018-08-30T03:42:31.896Z,29.57
2018-08-30T03:45:00.386Z,31.30
2018-08-30T03:47:28.922Z,29.30
2018-08-30T03:49:57.455Z,28.27
2018-08-30T03:52:26.122Z,30.70
2018-08-30T03:54:54.650Z,28.47
2018-08-30T03:57:23.197Z,28.40
2018-08-30T03:59:51.788Z,26.90
2018-08-30T04:02:20.303Z,26.97
2018-08-30T04:04:48.858Z,27.73
2018-08-30T04:07:17.522Z,28.80
2018-08-30T04:09:46.057Z,28.07
2018-08-30T04:12:14.659Z,27.07
2018-08-30T04:14:43.179Z,29.20
2018-08-30T04:17:11.735Z,28.93
2018-08-30T04:19:40.348Z,29.27
2018-08-30T04:22:08.993Z,28.87
2018-08-30T04:24:37.390Z,30.03
2018-08-30T04:27:06.102Z,28.87
2018-08-30T04:29:34.617Z,27.37
2018-08-30T04:32:03.381Z,24.70
2018-08-30T04:34:31.885Z,25.30
2018-08-30T04:37:00.429Z,25.93
2018-08-30T04:39:28.952Z,24.43
2018-08-30T04:41:57.493Z,23.20
2018-08-30T04:44:26.037Z,23.57
2018-08-30T04:46:54.513Z,20.97
2018-08-30T04:49:23.041Z,22.80
2018-08-30T04:51:51.620Z,22.60
2018-08-30T04:54:20.174Z,22.13
2018-08-30T04:56:48.697Z,21.57
2018-08-30T04:59:17.207Z,20.20
2018-08-30T05:01:52.630Z,20.60
2018-08-30T05:04:21.254Z,20.10
2018-08-30T05:06:49.794Z,17.17
2018-08-30T05:09:18.292Z,16.13
2018-08-30T05:11:46.773Z,15.93
2018-08-30T05:14:15.314Z,17.20
2018-08-30T05:16:44.090Z,14.90
2018-08-30T05:19:12.699Z,15.70
2018-08-30T05:21:41.218Z,16.53
2018-08-30T05:24:09.740Z,16.00
2018-08-30T05:26:38.263Z,15.67
2018-08-30T05:29:06.794Z,14.10
2018-08-30T05:31:35.476Z,14.90
2018-08-30T05:34:03.981Z,13.33
2018-08-30T05:36:32.555Z,12.53
2018-08-30T05:39:01.115Z,12.03
2018-08-30T05:41:29.657Z,13.30
2018-08-30T05:43:58.548Z,12.23
2018-08-30T05:46:27.042Z,11.27
2018-08-30T05:48:55.551Z,10.37
2018-08-30T05:51:24.088Z,10.90
2018-08-30T05:53:52.557Z,11.07
2018-08-30T05:56:21.522Z,10.80
2018-08-30T05:58:50.056Z,11.50
2018-08-30T06:01:18.598Z,9.50
2018-08-30T06:03:47.118Z,8.20
2018-08-30T06:06:15.630Z,8.40
2018-08-30T06:08:44.154Z,8.30
2018-08-30T06:11:12.748Z,8.33
2018-08-30T06:13:41.358Z,8.20
2018-08-30T06:16:09.999Z,9.43
2018-08-30T06:18:38.518Z,8.10
2018-08-30T06:21:07.061Z,7.13
2018-08-30T06:23:36.261Z,6.67
2018-08-30T06:26:04.826Z,7.50
2018-08-30T06:28:34.768Z,7.10
2018-08-30T06:31:03.331Z,7.17
2018-08-30T06:33:31.870Z,8.37
2018-08-30T06:36:00.473Z,7.50
2018-08-30T06:38:29.172Z,7.17
2018-08-30T06:40:57.727Z,7.13
2018-08-30T06:43:26.285Z,7.03
2018-08-30T06:45:54.819Z,6.57
2018-08-30T06:48:23.396Z,6.43
2018-08-30T06:50:51.934Z,6.10
2018-08-30T06:53:20.463Z,6.53
2018-08-30T06:55:48.987Z,5.53
2018-08-30T06:58:17.583Z,6.53
2018-08-30T07:00:46.068Z,6.43
2018-08-30T07:03:14.559Z,6.50
2018-08-30T07:05:43.102Z,7.17
2018-08-30T07:08:11.760Z,6.40
2018-08-30T07:10:40.375Z,5.30
2018-08-30T07:13:08.974Z,5.40
2018-08-30T07:15:37.626Z,5.63
2018-08-30T07:18:07.140Z,6.83
2018-08-30T07:20:35.669Z,6.20
2018-08-30T07:23:04.314Z,4.50
2018-08-30T07:25:32.850Z,6.00
2018-08-30T07:28:01.801Z,5.80
2018-08-30T07:30:30.307Z,4.53
2018-08-30T07:32:58.778Z,5.30
2018-08-30T07:35:27.364Z,4.83
2018-08-30T07:37:55.878Z,4.90
2018-08-30T07:40:24.635Z,4.60
2018-08-30T07:42:53.135Z,4.20
2018-08-30T07:45:21.609Z,4.53
2018-08-30T07:47:50.565Z,4.10
2018-08-30T07:50:19.094Z,3.80
2018-08-30T07:52:47.722Z,3.73
2018-08-30T07:55:16.397Z,4.10
2018-08-30T07:57:44.890Z,4.57
2018-08-30T08:00:13.379Z,3.17
2018-08-30T08:02:42.000Z,3.83
2018-08-30T08:05:10.552Z,3.20
2018-08-30T08:07:39.202Z,3.33
2018-08-30T08:10:07.846Z,3.80
2018-08-30T08:12:36.371Z,3.87
2018-08-30T08:15:04.927Z,2.70
2018-08-30T08:17:33.577Z,3.30
2018-08-30T08:20:02.078Z,3.53
2018-08-30T08:22:30.641Z,4.13
2018-08-30T08:24:59.219Z,3.90
2018-08-30T08:27:27.998Z,3.70
2018-08-30T08:29:59.372Z,3.40
2018-08-30T08:32:27.974Z,3.53
2018-08-30T08:34:56.598Z,3.67
2018-08-30T08:37:25.104Z,3.63
2018-08-30T08:39:53.641Z,5.43
2018-08-30T08:42:22.134Z,3.73
2018-08-30T08:44:50.681Z,3.67
2018-08-30T08:47:19.238Z,3.83
2018-08-30T08:49:47.785Z,3.40
2018-08-30T08:52:16.346Z,4.13
2018-08-30T08:54:44.898Z,4.30
2018-08-30T08:57:13.386Z,5.00
2018-08-30T08:59:41.969Z,3.90
2018-08-30T09:02:10.567Z,3.60
2018-08-30T09:04:39.404Z,3.40
2018-08-30T09:07:07.942Z,4.80
2018-08-30T09:09:36.525Z,3.10
2018-08-30T09:12:05.178Z,3.63
2018-08-30T09:14:33.781Z,3.97
2018-08-30T09:17:02.454Z,4.63
2018-08-30T09:19:31.062Z,3.10
2018-08-30T09:21:59.782Z,4.27
2018-08-30T09:24:28.264Z,3.00
2018-08-30T09:26:56.907Z,3.53
2018-08-30T09:29:25.423Z,3.80
2018-08-30T09:31:53.915Z,3.23
2018-08-30T09:34:22.702Z,2.60
2018-08-30T09:36:52.115Z,3.80
2018-08-30T09:39:20.655Z,4.07
2018-08-30T09:41:49.154Z,3.97
2018-08-30T09:44:17.659Z,3.90
2018-08-30T09:46:46.536Z,4.13
2018-08-30T09:49:15.067Z,3.37
2018-08-30T09:51:43.554Z,3.50
2018-08-30T09:54:12.050Z,3.70
2018-08-30T09:56:40.675Z,3.60
2018-08-30T09:59:09.223Z,2.60
2018-08-30T10:01:43.011Z,2.60
2018-08-30T10:04:11.590Z,2.23
2018-08-30T10:06:40.270Z,2.60
2018-08-30T10:09:10.150Z,2.47
2018-08-30T10:11:39.551Z,2.23
2018-08-30T10:14:08.233Z,2.70
2018-08-30T10:16:36.942Z,2.77
2018-08-30T10:19:05.458Z,2.73
2018-08-30T10:21:34.070Z,2.60
2018-08-30T10:24:02.532Z,2.50
2018-08-30T10:26:31.088Z,2.17
2018-08-30T10:28:59.678Z,3.13
2018-08-30T10:31:28.271Z,2.60
2018-08-30T10:33:56.815Z,2.77
2018-08-30T10:36:25.333Z,2.67
2018-08-30T10:38:53.882Z,3.47
2018-08-30T10:41:22.426Z,2.50
2018-08-30T10:43:51.058Z,3.10
2018-08-30T10:46:19.575Z,3.10
2018-08-30T10:48:48.161Z,2.27
2018-08-30T10:51:16.674Z,2.60
2018-08-30T10:53:45.212Z,2.50
2018-08-30T10:56:14.771Z,2.23
2018-08-30T10:58:43.348Z,3.30
2018-08-30T11:01:11.887Z,2.80
2018-08-30T11:03:40.555Z,2.80
2018-08-30T11:06:09.284Z,3.50
2018-08-30T11:08:37.789Z,3.40
2018-08-30T11:11:06.359Z,2.93
2018-08-30T11:13:35.108Z,2.83
2018-08-30T11:16:03.653Z,2.73
2018-08-30T11:18:32.162Z,4.20
2018-08-30T11:21:00.658Z,3.20
2018-08-30T11:23:29.258Z,3.93
2018-08-30T11:25:57.783Z,2.80
2018-08-30T11:28:26.302Z,2.30
2018-08-30T11:30:54.855Z,2.40
2018-08-30T11:33:23.399Z,2.50
2018-08-30T11:35:51.906Z,3.87
2018-08-30T11:38:20.470Z,2.67
2018-08-30T11:40:48.994Z,2.57
2018-08-30T11:43:17.765Z,3.03
2018-08-30T11:45:47.006Z,2.50
2018-08-30T11:48:15.510Z,2.47
2018-08-30T11:50:44.057Z,2.37
2018-08-30T11:53:12.562Z,2.90
2018-08-30T11:55:41.258Z,2.30
2018-08-30T11:58:09.971Z,3.03
2018-08-30T12:00:39.420Z,3.70
2018-08-30T12:03:07.998Z,2.60
2018-08-30T12:05:36.565Z,2.97
2018-08-30T12:08:06.139Z,3.60
2018-08-30T12:10:37.031Z,4.20
2018-08-30T12:13:05.610Z,5.73
2018-08-30T12:15:34.226Z,5.10
2018-08-30T12:18:03.146Z,3.17
2018-08-30T12:20:31.724Z,4.40
2018-08-30T12:23:00.437Z,5.10
2018-08-30T12:25:28.979Z,4.80
2018-08-30T12:27:57.569Z,5.60
2018-08-30T12:30:26.113Z,4.37
2018-08-30T12:32:54.645Z,4.90
2018-08-30T12:35:23.384Z,4.40
2018-08-30T12:37:51.877Z,4.03
2018-08-30T12:40:20.665Z,4.00
2018-08-30T12:42:49.352Z,4.00
2018-08-30T12:45:19.344Z,3.43
2018-08-30T12:47:48.134Z,4.30
2018-08-30T12:50:16.776Z,3.90
2018-08-30T12:52:45.291Z,4.93
2018-08-30T12:55:13.855Z,4.17
2018-08-30T12:57:42.477Z,5.37
2018-08-30T13:00:11.875Z,4.17
2018-08-30T13:02:40.389Z,5.43
2018-08-30T13:05:08.969Z,4.13
2018-08-30T13:07:37.620Z,3.67
2018-08-30T13:10:06.368Z,3.73
2018-08-30T13:12:34.917Z,3.90
2018-08-30T13:15:03.670Z,4.00
2018-08-30T13:17:33.072Z,4.00
2018-08-30T13:20:01.831Z,4.80
2018-08-30T13:22:30.306Z,4.77
2018-08-30T13:24:59.413Z,3.23
2018-08-30T13:27:27.705Z,3.23
2018-08-30T13:29:56.474Z,3.07
2018-08-30T13:32:25.182Z,3.03
2018-08-30T13:34:54.102Z,3.30
2018-08-30T13:37:22.706Z,3.47
2018-08-30T13:39:51.240Z,3.43
2018-08-30T13:42:20.618Z,2.37
2018-08-30T13:44:49.180Z,2.60
2018-08-30T13:47:17.671Z,2.80
2018-08-30T13:49:46.098Z,2.50
2018-08-30T13:52:15.094Z,2.80
2018-08-30T13:54:43.677Z,2.90
2018-08-30T13:57:14.157Z,2.10
2018-08-30T13:59:43.003Z,2.43
2018-08-30T14:02:17.939Z,2.67
2018-08-30T14:04:46.388Z,2.13
2018-08-30T14:07:14.820Z,2.43
2018-08-30T14:09:43.545Z,1.90
2018-08-30T14:12:12.273Z,2.13
2018-08-30T14:14:40.621Z,1.77
2018-08-30T14:17:08.874Z,1.97
2018-08-30T14:19:37.535Z,1.80
2018-08-30T14:22:06.067Z,2.30
2018-08-30T14:24:34.814Z,2.00
2018-08-30T14:27:03.849Z,1.80
2018-08-30T14:29:32.186Z,1.60
2018-08-30T14:32:00.666Z,1.53
2018-08-30T14:34:29.187Z,1.93
2018-08-30T14:36:57.924Z,1.87
2018-08-30T14:39:26.554Z,1.70
2018-08-30T14:41:55.150Z,1.83
2018-08-30T14:44:23.966Z,1.70
2018-08-30T14:46:52.474Z,2.43
2018-08-30T14:49:21.016Z,2.20
2018-08-30T14:51:49.579Z,1.87
2018-08-30T14:54:18.223Z,2.20
2018-08-30T14:56:46.735Z,1.57
2018-08-30T14:59:15.278Z,3.00
2018-08-30T15:01:43.898Z,1.53
2018-08-30T15:04:12.406Z,1.80
2018-08-30T15:06:40.874Z,1.80
2018-08-30T15:09:09.721Z,1.80
2018-08-30T15:11:38.233Z,3.10
2018-08-30T15:14:07.114Z,1.50
2018-08-30T15:16:35.630Z,2.17
2018-08-30T15:19:04.322Z,1.60
2018-08-30T15:21:33.043Z,1.77
2018-08-30T15:24:01.558Z,1.67
2018-08-30T15:26:30.022Z,1.53
2018-08-30T15:28:58.542Z,1.77
2018-08-30T15:31:28.525Z,1.67
2018-08-30T15:33:57.786Z,1.50
2018-08-30T15:36:26.286Z,1.53
2018-08-30T15:38:54.805Z,1.60
2018-08-30T15:41:23.318Z,1.17
2018-08-30T15:43:51.996Z,3.00
2018-08-30T15:46:20.559Z,1.60
2018-08-30T15:48:49.160Z,1.40
2018-08-30T15:51:18.098Z,1.77
2018-08-30T15:53:46.484Z,1.60
2018-08-30T15:56:15.149Z,1.53
2018-08-30T15:58:43.614Z,1.90
2018-08-30T16:01:12.132Z,1.20
2018-08-30T16:03:40.679Z,1.70
2018-08-30T16:06:09.290Z,1.50
2018-08-30T16:08:37.818Z,1.50
2018-08-30T16:11:06.386Z,1.07
2018-08-30T16:13:34.890Z,1.20
2018-08-30T16:16:03.463Z,1.33
2018-08-30T16:18:32.638Z,1.40
2018-08-30T16:21:01.373Z,2.67
2018-08-30T16:23:32.410Z,1.03
2018-08-30T16:26:00.891Z,1.30
2018-08-30T16:28:30.376Z,1.40
2018-08-30T16:30:59.261Z,1.27
2018-08-30T16:33:27.947Z,1.33
2018-08-30T16:35:56.897Z,1.27
2018-08-30T16:38:25.545Z,2.23
2018-08-30T16:40:54.219Z,1.53
2018-08-30T16:43:22.961Z,1.00
2018-08-30T16:45:51.558Z,1.43
2018-08-30T16:48:20.014Z,1.50
2018-08-30T16:50:48.530Z,1.83
2018-08-30T16:53:17.108Z,2.30
2018-08-30T16:55:45.592Z,1.37
2018-08-30T16:58:14.601Z,1.30
2018-08-30T17:00:43.160Z,1.20
2018-08-30T17:03:11.725Z,1.50
2018-08-30T17:05:40.314Z,1.27
2018-08-30T17:08:08.795Z,0.97
2018-08-30T17:10:37.307Z,1.47
2018-08-30T17:13:06.215Z,1.20
2018-08-30T17:15:34.738Z,1.53
2018-08-30T17:18:03.268Z,1.73
2018-08-30T17:20:41.498Z,1.20
2018-08-30T17:23:10.335Z,1.70
2018-08-30T17:25:38.858Z,1.57
2018-08-30T17:28:07.346Z,1.40
2018-08-30T17:30:35.978Z,1.90
2018-08-30T17:33:04.575Z,1.40
2018-08-30T17:35:33.212Z,1.10
2018-08-30T17:38:01.808Z,2.20
2018-08-30T17:40:30.309Z,1.23
2018-08-30T17:42:58.930Z,1.20
2018-08-30T17:45:27.653Z,1.97
2018-08-30T17:47:56.250Z,1.07
2018-08-30T17:50:24.849Z,1.60
2018-08-30T17:52:53.311Z,1.50
2018-08-30T17:55:22.038Z,1.20
2018-08-30T17:57:50.561Z,1.10
2018-08-30T18:00:19.360Z,1.53
2018-08-30T18:02:48.164Z,1.90
2018-08-30T18:05:16.857Z,1.80
2018-08-30T18:07:45.776Z,1.10
2018-08-30T18:10:14.368Z,2.23
2018-08-30T18:12:42.850Z,1.27
2018-08-30T18:15:13.233Z,1.30
2018-08-30T18:17:41.800Z,1.30
2018-08-30T18:20:10.374Z,2.00
2018-08-30T18:22:38.965Z,1.87
2018-08-30T18:25:08.419Z,2.17
2018-08-30T18:27:37.600Z,2.10
2018-08-30T18:30:07.475Z,1.60
2018-08-30T18:32:36.098Z,2.57
2018-08-30T18:35:04.783Z,1.83
2018-08-30T18:37:33.325Z,1.20
2018-08-30T18:40:01.831Z,1.50
2018-08-30T18:42:30.493Z,1.63
2018-08-30T18:44:59.040Z,2.80
2018-08-30T18:47:27.704Z,2.30
2018-08-30T18:49:56.576Z,1.77
2018-08-30T18:52:25.380Z,2.30
2018-08-30T18:54:54.633Z,1.43
2018-08-30T18:57:23.648Z,1.67
2018-08-30T18:59:52.763Z,2.00
2018-08-30T19:02:21.716Z,3.00
2018-08-30T19:04:50.749Z,1.80
2018-08-30T19:07:19.896Z,2.27
2018-08-30T19:09:49.043Z,3.10
2018-08-30T19:12:18.147Z,2.50
2018-08-30T19:14:47.104Z,2.50
2018-08-30T19:17:21.341Z,2.20
2018-08-30T19:19:50.399Z,2.23
2018-08-30T19:22:19.772Z,2.10
2018-08-30T19:24:54.341Z,3.30
2018-08-30T19:27:23.712Z,2.80
2018-08-30T19:29:58.238Z,2.57
2018-08-30T19:32:27.904Z,2.47
2018-08-30T19:35:01.103Z,2.63
2018-08-30T19:37:30.119Z,2.80
2018-08-30T19:39:58.895Z,3.07
2018-08-30T19:42:27.619Z,1.90
2018-08-30T19:44:58.387Z,5.30
2018-08-30T19:47:27.012Z,2.07
2018-08-30T19:49:55.673Z,2.60
2018-08-30T19:52:24.218Z,3.13
2018-08-30T19:54:52.991Z,2.97
2018-08-30T19:57:21.452Z,2.83
2018-08-30T19:59:50.019Z,2.60
2018-08-30T20:02:18.559Z,2.67
2018-08-30T20:04:47.040Z,2.67
2018-08-30T20:07:16.053Z,2.80
2018-08-30T20:09:44.668Z,2.60
2018-08-30T20:12:13.182Z,2.60
2018-08-30T20:14:41.833Z,3.03
2018-08-30T20:17:10.437Z,2.33
2018-08-30T20:19:39.150Z,2.23
2018-08-30T20:22:10.320Z,2.97
2018-08-30T20:24:38.787Z,2.80
2018-08-30T20:27:07.594Z,3.00
2018-08-30T20:29:36.139Z,2.83
2018-08-30T20:32:04.701Z,2.60
2018-08-30T20:34:33.371Z,3.57
2018-08-30T20:37:02.095Z,3.80
2018-08-30T20:39:30.652Z,3.50
2018-08-30T20:41:59.306Z,2.73
2018-08-30T20:44:27.801Z,2.80
2018-08-30T20:46:56.289Z,2.97
2018-08-30T20:49:25.029Z,3.03
2018-08-30T20:51:53.610Z,2.70
2018-08-30T20:54:22.147Z,5.00
2018-08-30T20:56:50.734Z,2.87
2018-08-30T20:59:19.271Z,3.10
2018-08-30T21:01:47.833Z,4.10
2018-08-30T21:04:16.385Z,3.50
2018-08-30T21:06:45.074Z,3.33
2018-08-30T21:09:13.604Z,3.00
2018-08-30T21:11:42.456Z,2.47
2018-08-30T21:14:10.954Z,4.00
2018-08-30T21:16:39.439Z,2.57
2018-08-30T21:19:07.948Z,3.23
2018-08-30T21:21:36.527Z,2.87
2018-08-30T21:24:05.422Z,3.23
2018-08-30T21:26:33.922Z,2.97
2018-08-30T21:29:02.579Z,2.70
2018-08-30T21:31:31.553Z,3.30
2018-08-30T21:34:00.054Z,3.00
2018-08-30T21:36:28.563Z,3.10
2018-08-30T21:38:57.133Z,2.90
2018-08-30T21:41:25.594Z,3.00
2018-08-30T21:43:54.093Z,3.30
2018-08-30T21:46:22.686Z,3.47
2018-08-30T21:48:51.596Z,3.00
2018-08-30T21:51:20.074Z,2.63
2018-08-30T21:53:48.636Z,4.40
2018-08-30T21:56:17.151Z,4.00
2018-08-30T21:58:45.845Z,3.90
2018-08-30T22:01:14.329Z,3.20
2018-08-30T22:03:42.860Z,3.20
2018-08-30T22:06:11.366Z,3.37
2018-08-30T22:08:39.973Z,3.67
2018-08-30T22:11:08.502Z,3.07
2018-08-30T22:13:36.982Z,3.20
2018-08-30T22:16:05.563Z,3.77
2018-08-30T22:18:34.066Z,3.90
2018-08-30T22:21:02.643Z,3.63
2018-08-30T22:23:31.205Z,3.17
2018-08-30T22:25:59.727Z,3.43
2018-08-30T22:28:28.374Z,3.50
2018-08-30T22:30:56.878Z,3.63
2018-08-30T22:33:25.605Z,3.63
2018-08-30T22:35:54.099Z,3.47
2018-08-30T22:38:22.628Z,3.40
2018-08-30T22:40:51.234Z,3.60
2018-08-30T22:43:19.720Z,3.10
2018-08-30T22:45:48.226Z,4.07
2018-08-30T22:48:16.698Z,3.80
2018-08-30T22:50:45.341Z,3.77
2018-08-30T22:53:13.843Z,3.57
2018-08-30T22:55:42.687Z,3.70
2018-08-30T22:58:11.175Z,3.50
2018-08-30T23:00:39.839Z,3.63
2018-08-30T23:03:08.549Z,3.90
2018-08-30T23:05:37.037Z,3.70
2018-08-30T23:08:05.609Z,3.90
2018-08-30T23:10:34.102Z,3.47
2018-08-30T23:13:02.641Z,3.60
2018-08-30T23:15:31.161Z,3.73
2018-08-30T23:17:59.640Z,3.53
2018-08-30T23:20:28.163Z,4.53
2018-08-30T23:22:56.628Z,4.37
2018-08-30T23:25:25.099Z,3.70
2018-08-30T23:27:53.609Z,3.57
2018-08-30T23:30:22.107Z,4.20
2018-08-30T23:32:50.666Z,3.70
2018-08-30T23:35:19.121Z,3.17
2018-08-30T23:37:47.661Z,4.63
2018-08-30T23:40:16.316Z,4.50
2018-08-30T23:42:44.809Z,4.40
2018-08-30T23:45:13.371Z,4.60
2018-08-30T23:47:41.967Z,5.00
2018-08-30T23:50:10.466Z,4.17
2018-08-30T23:52:39.195Z,4.60
2018-08-30T23:55:07.882Z,4.27
2018-08-30T23:57:36.908Z,4.20
